Time;durP1;ratioP1;P1;durP2;ratioP2;P2;SDS_P1;SDS_P2;PMS_P1;PMS_P2;Temp;Humidity;BMP_temperature;BMP_pressure;BME280_temperature;BME280_humidity;BME280_pressure;Samples;Min_cycle;Max_cycle;Signal;HPM_P1;HPM_P2
2022/11/28 00:01:23;;;;;;;24.13;15.07;;;;;;;;;;6213354;28;20264;-74
2022/11/28 00:04:25;;;;;;;23.83;14.73;;;;;;;;;;6222996;28;20053;-74
2022/11/28 00:07:27;;;;;;;22.23;14.60;;;;;;;;;;6224698;28;20050;-74
2022/11/28 00:10:30;;;;;;;23.55;15.15;;;;;;;;;;6214869;28;20124;-74
2022/11/28 00:13:31;;;;;;;25.23;14.73;;;;;;;;;;6221805;28;20058;-74
2022/11/28 00:16:33;;;;;;;20.15;14.10;;;;;;;;;;6223420;28;20384;-74
2022/11/28 00:19:35;;;;;;;20.20;14.30;;;;;;;;;;6221333;28;20096;-74
2022/11/28 00:22:36;;;;;;;20.50;13.95;;;;;;;;;;6221273;28;20054;-74
2022/11/28 00:25:39;;;;;;;21.13;14.27;;;;;;;;;;6223491;28;20237;-74
2022/11/28 00:28:41;;;;;;;22.42;13.93;;;;;;;;;;6219551;28;20113;-74
2022/11/28 00:31:43;;;;;;;21.73;14.15;;;;;;;;;;6220133;28;20276;-74
2022/11/28 00:34:44;;;;;;;23.33;15.30;;;;;;;;;;6223582;28;20100;-74
2022/11/28 00:37:46;;;;;;;20.90;14.82;;;;;;;;;;6221592;28;20321;-74
2022/11/28 00:40:49;;;;;;;21.23;14.52;;;;;;;;;;6211903;28;20053;-74
2022/11/28 00:43:51;;;;;;;21.83;15.10;;;;;;;;;;6217619;28;20576;-74
2022/11/28 00:46:53;;;;;;;19.90;13.75;;;;;;;;;;6213303;28;20325;-74
2022/11/28 00:49:55;;;;;;;24.35;14.25;;;;;;;;;;6220619;28;20108;-74
2022/11/28 00:52:56;;;;;;;19.83;14.35;;;;;;;;;;6221300;28;20057;-74
2022/11/28 00:55:59;;;;;;;19.92;13.82;;;;;;;;;;6222632;28;20198;-74
2022/11/28 00:59:01;;;;;;;19.58;14.35;;;;;;;;;;6218666;28;20050;-74
2022/11/28 01:02:03;;;;;;;19.60;13.95;;;;;;;;;;6223799;28;20276;-74
2022/11/28 01:05:05;;;;;;;21.98;13.60;;;;;;;;;;6218524;28;20324;-74
2022/11/28 01:08:07;;;;;;;21.23;14.07;;;;;;;;;;6221335;28;20049;-75
2022/11/28 01:11:12;;;;;;;21.77;14.45;;;;;;;;;;6224427;28;20077;-74
2022/11/28 01:14:15;;;;;;;22.60;14.60;;;;;;;;;;6221938;28;20100;-74
2022/11/28 01:17:17;;;;;;;21.05;13.60;;;;;;;;;;6223536;28;20093;-75
2022/11/28 01:20:18;;;;;;;20.08;13.70;;;;;;;;;;6220422;28;20057;-74
2022/11/28 01:23:20;;;;;;;19.13;13.40;;;;;;;;;;6221696;28;20054;-74
2022/11/28 01:26:26;;;;;;;19.67;13.18;;;;;;;;;;6219827;28;20232;-74
2022/11/28 01:29:27;;;;;;;20.75;13.60;;;;;;;;;;6220281;28;20092;-74
2022/11/28 01:32:29;;;;;;;20.90;12.98;;;;;;;;;;6220241;28;20092;-75
2022/11/28 01:35:30;;;;;;;18.58;13.38;;;;;;;;;;6222995;28;20325;-74
2022/11/28 01:38:32;;;;;;;16.50;12.48;;;;;;;;;;6220159;28;20046;-74
2022/11/28 01:41:35;;;;;;;18.65;13.25;;;;;;;;;;6220351;28;20073;-74
2022/11/28 01:45:05;;;;;;;18.90;13.93;;;;;;;;;;6219919;28;20345;-74
2022/11/28 01:48:07;;;;;;;20.40;12.50;;;;;;;;;;6218949;28;20081;-74
2022/11/28 01:51:10;;;;;;;16.58;11.95;;;;;;;;;;6221377;28;20206;-74
2022/11/28 01:54:12;;;;;;;20.45;12.23;;;;;;;;;;6221858;28;20364;-74
2022/11/28 01:57:17;;;;;;;19.60;12.70;;;;;;;;;;6222486;28;20057;-74
2022/11/28 02:00:20;;;;;;;20.02;13.27;;;;;;;;;;6220515;28;20076;-74
2022/11/28 02:03:26;;;;;;;19.27;12.00;;;;;;;;;;6222446;28;20053;-74
2022/11/28 02:06:27;;;;;;;18.58;12.65;;;;;;;;;;6219819;28;20050;-74
2022/11/28 02:09:29;;;;;;;17.58;12.60;;;;;;;;;;6222227;28;20057;-74
2022/11/28 02:12:45;;;;;;;15.70;11.82;;;;;;;;;;6219456;28;20329;-74
2022/11/28 02:16:07;;;;;;;18.75;12.60;;;;;;;;;;6220460;28;20099;-74
2022/11/28 02:19:25;;;;;;;16.77;12.52;;;;;;;;;;6221163;28;20235;-74
2022/11/28 02:22:30;;;;;;;19.33;12.52;;;;;;;;;;6222775;28;20352;-74
2022/11/28 02:26:05;;;;;;;18.00;12.23;;;;;;;;;;6222514;28;20049;-74
2022/11/28 02:29:22;;;;;;;;;;;;;;;;;;6221261;28;20104;-74
2022/11/28 02:32:37;;;;;;;15.73;11.57;;;;;;;;;;6209737;28;19925;-74
2022/11/28 02:35:44;;;;;;;17.65;11.02;;;;;;;;;;6220299;28;20715;-74
2022/11/28 02:38:56;;;;;;;17.52;12.48;;;;;;;;;;6217902;28;20042;-74
2022/11/28 02:42:04;;;;;;;17.58;11.50;;;;;;;;;;6221106;28;20100;-74
2022/11/28 02:45:10;;;;;;;20.38;12.63;;;;;;;;;;6217417;28;20054;-74
2022/11/28 02:48:19;;;;;;;17.40;12.43;;;;;;;;;;6219602;28;20330;-74
2022/11/28 02:51:26;;;;;;;17.05;11.68;;;;;;;;;;6220331;28;20050;-74
2022/11/28 02:54:30;;;;;;;17.15;11.73;;;;;;;;;;6221545;28;20054;-74
2022/11/28 02:57:36;;;;;;;19.10;12.20;;;;;;;;;;6218133;28;20086;-74
2022/11/28 03:00:39;;;;;;;18.00;11.20;;;;;;;;;;6220751;28;20092;-74
2022/11/28 03:03:53;;;;;;;16.33;12.47;;;;;;;;;;6219330;28;20056;-74
2022/11/28 03:07:01;;;;;;;17.33;11.48;;;;;;;;;;6216466;28;20321;-74
2022/11/28 03:10:15;;;;;;;16.27;11.70;;;;;;;;;;6217966;28;20066;-74
2022/11/28 03:13:22;;;;;;;17.15;11.77;;;;;;;;;;6219524;28;20069;-74
2022/11/28 03:16:28;;;;;;;18.35;12.07;;;;;;;;;;6220137;28;20046;-74
2022/11/28 03:19:34;;;;;;;15.32;10.80;;;;;;;;;;6223657;28;20038;-74
2022/11/28 03:22:41;;;;;;;20.30;11.80;;;;;;;;;;6223679;28;20058;-74
2022/11/28 03:25:50;;;;;;;15.45;11.63;;;;;;;;;;6221384;28;20054;-74
2022/11/28 03:28:57;;;;;;;17.30;11.93;;;;;;;;;;6221718;28;20053;-74
2022/11/28 03:32:01;;;;;;;15.73;11.43;;;;;;;;;;6226663;28;20061;-74
2022/11/28 03:35:05;;;;;;;;;;;;;;;;;;6222064;28;20046;-74
2022/11/28 03:38:11;;;;;;;15.70;10.95;;;;;;;;;;6225301;28;20220;-74
2022/11/28 03:41:16;;;;;;;16.25;11.40;;;;;;;;;;6220362;28;20210;-74
2022/11/28 03:44:21;;;;;;;17.55;11.38;;;;;;;;;;6221287;28;20104;-74
2022/11/28 03:47:26;;;;;;;19.90;12.07;;;;;;;;;;6220607;28;20064;-74
2022/11/28 03:50:33;;;;;;;17.08;11.13;;;;;;;;;;6223001;28;20084;-74
2022/11/28 03:53:40;;;;;;;16.40;10.90;;;;;;;;;;6218754;28;20062;-74
2022/11/28 03:56:47;;;;;;;16.15;10.90;;;;;;;;;;6221533;28;20054;-74
2022/11/28 03:59:50;;;;;;;15.65;10.60;;;;;;;;;;6221714;28;20046;-74
2022/11/28 04:02:56;;;;;;;16.90;10.82;;;;;;;;;;6225974;28;20061;-74
2022/11/28 04:06:01;;;;;;;18.08;10.52;;;;;;;;;;6220795;28;20093;-74
2022/11/28 04:09:07;;;;;;;14.73;10.40;;;;;;;;;;6227217;28;20108;-74
2022/11/28 04:12:14;;;;;;;18.80;11.43;;;;;;;;;;6223403;28;21549;-74
2022/11/28 04:15:19;;;;;;;17.05;10.93;;;;;;;;;;6224372;28;20097;-74
2022/11/28 04:18:25;;;;;;;17.77;11.63;;;;;;;;;;6221129;28;20088;-74
2022/11/28 04:21:31;;;;;;;17.13;10.23;;;;;;;;;;6222895;28;20053;-75
2022/11/28 04:24:36;;;;;;;18.38;10.93;;;;;;;;;;6222167;28;20054;-74
2022/11/28 04:27:40;;;;;;;15.70;10.43;;;;;;;;;;6220454;28;20289;-74
2022/11/28 04:30:44;;;;;;;15.93;9.68;;;;;;;;;;6221874;28;20096;-74
2022/11/28 04:33:49;;;;;;;19.10;9.95;;;;;;;;;;6221893;28;20054;-74
2022/11/28 04:36:53;;;;;;;18.73;10.15;;;;;;;;;;6222659;28;20337;-74
2022/11/28 04:39:56;;;;;;;14.07;10.05;;;;;;;;;;6222403;28;20057;-74
2022/11/28 04:43:00;;;;;;;15.63;10.73;;;;;;;;;;6223912;28;20325;-75
2022/11/28 04:46:07;;;;;;;18.27;10.43;;;;;;;;;;6222901;28;20349;-75
2022/11/28 04:49:09;;;;;;;17.08;10.80;;;;;;;;;;6221655;28;20049;-75
2022/11/28 04:52:15;;;;;;;14.07;10.35;;;;;;;;;;6223545;28;20268;-74
2022/11/28 04:55:24;;;;;;;15.23;10.70;;;;;;;;;;6220319;28;20097;-74
2022/11/28 04:58:30;;;;;;;15.00;10.68;;;;;;;;;;6220603;28;20053;-74
2022/11/28 05:01:32;;;;;;;16.35;10.75;;;;;;;;;;6222072;28;20069;-74
2022/11/28 05:04:35;;;;;;;14.40;10.50;;;;;;;;;;6224763;28;20340;-74
2022/11/28 05:07:38;;;;;;;16.75;10.60;;;;;;;;;;6221579;28;20061;-74
2022/11/28 05:10:39;;;;;;;14.70;10.52;;;;;;;;;;6219762;28;20046;-74
2022/11/28 05:13:41;;;;;;;16.90;11.90;;;;;;;;;;6220987;28;20050;-74
2022/11/28 05:16:43;;;;;;;17.25;11.27;;;;;;;;;;6220949;28;20050;-74
2022/11/28 05:19:44;;;;;;;17.35;10.80;;;;;;;;;;6223566;28;20069;-74
2022/11/28 05:22:47;;;;;;;12.75;9.88;;;;;;;;;;6221330;28;20046;-74
2022/11/28 05:25:49;;;;;;;17.02;10.93;;;;;;;;;;6220996;28;20053;-71
2022/11/28 05:28:51;;;;;;;15.65;10.80;;;;;;;;;;6223575;28;20062;-72
2022/11/28 05:31:53;;;;;;;16.30;10.98;;;;;;;;;;6223163;28;20045;-72
2022/11/28 05:34:54;;;;;;;16.80;11.48;;;;;;;;;;6223099;28;20375;-71
2022/11/28 05:37:57;;;;;;;16.08;10.35;;;;;;;;;;6221431;28;20050;-70
2022/11/28 05:40:59;;;;;;;16.58;10.77;;;;;;;;;;6221055;28;20104;-72
2022/11/28 05:44:01;;;;;;;16.05;10.55;;;;;;;;;;6224712;28;20081;-71
2022/11/28 05:47:03;;;;;;;16.02;10.45;;;;;;;;;;6215743;28;20214;-73
2022/11/28 05:50:05;;;;;;;16.55;10.40;;;;;;;;;;6220355;28;20046;-72
2022/11/28 05:53:09;;;;;;;18.63;11.15;;;;;;;;;;6219274;28;20233;-72
2022/11/28 05:56:12;;;;;;;17.07;11.03;;;;;;;;;;6218702;28;20054;-72
2022/11/28 05:59:14;;;;;;;15.27;10.43;;;;;;;;;;6222801;28;20327;-72
2022/11/28 06:02:16;;;;;;;13.57;10.52;;;;;;;;;;6222278;28;20096;-73
2022/11/28 06:05:17;;;;;;;16.50;11.00;;;;;;;;;;6219306;28;20060;-72
2022/11/28 06:08:20;;;;;;;17.88;10.80;;;;;;;;;;6218165;28;20340;-70
2022/11/28 06:11:24;;;;;;;17.77;11.32;;;;;;;;;;6223792;28;20104;-72
2022/11/28 06:14:25;;;;;;;15.45;11.15;;;;;;;;;;6221173;28;20050;-72
2022/11/28 06:17:27;;;;;;;17.25;11.45;;;;;;;;;;6221113;28;20058;-72
2022/11/28 06:20:29;;;;;;;16.40;11.57;;;;;;;;;;6220775;28;20042;-72
2022/11/28 06:23:32;;;;;;;20.02;11.40;;;;;;;;;;6217860;28;20141;-72
2022/11/28 06:26:34;;;;;;;15.97;11.07;;;;;;;;;;6220432;28;20053;-72
2022/11/28 06:29:36;;;;;;;17.50;11.95;;;;;;;;;;6220181;28;20531;-72
2022/11/28 06:32:38;;;;;;;16.42;10.95;;;;;;;;;;6219036;28;20050;-72
2022/11/28 06:35:39;;;;;;;17.20;11.15;;;;;;;;;;6219312;28;20745;-72
2022/11/28 06:38:42;;;;;;;17.65;11.07;;;;;;;;;;6220015;28;20054;-72
2022/11/28 06:41:44;;;;;;;15.10;10.30;;;;;;;;;;6218540;28;20342;-71
2022/11/28 06:44:46;;;;;;;14.30;10.70;;;;;;;;;;6217680;28;20352;-72
2022/11/28 06:47:48;;;;;;;20.00;11.15;;;;;;;;;;6219146;28;20049;-72
2022/11/28 06:50:50;;;;;;;15.82;10.43;;;;;;;;;;6223600;28;20061;-72
2022/11/28 06:53:54;;;;;;;14.57;9.48;;;;;;;;;;6219904;28;20061;-72
2022/11/28 06:56:55;;;;;;;;;;;;;;;;;;6220711;28;20345;-72
2022/11/28 06:59:57;;;;;;;19.23;9.93;;;;;;;;;;6220630;28;19918;-72
2022/11/28 07:02:58;;;;;;;16.02;10.32;;;;;;;;;;6222520;28;20057;-72
2022/11/28 07:06:00;;;;;;;14.00;10.20;;;;;;;;;;6216142;28;20249;-73
2022/11/28 07:09:04;;;;;;;15.20;10.43;;;;;;;;;;6218410;28;20096;-74
2022/11/28 07:12:06;;;;;;;18.65;9.93;;;;;;;;;;6216403;28;20083;-73
2022/11/28 07:15:08;;;;;;;17.02;10.55;;;;;;;;;;6217736;28;20049;-76
2022/11/28 07:18:09;;;;;;;17.23;10.32;;;;;;;;;;6216154;28;20436;-73
2022/11/28 07:21:13;;;;;;;15.95;10.25;;;;;;;;;;6220377;28;20050;-73
2022/11/28 07:24:16;;;;;;;13.43;9.07;;;;;;;;;;6222557;28;20066;-72
2022/11/28 07:27:17;;;;;;;17.33;10.00;;;;;;;;;;6222457;28;20156;-72
2022/11/28 07:30:19;;;;;;;13.00;9.88;;;;;;;;;;6220477;28;20073;-73
2022/11/28 07:33:21;;;;;;;19.52;10.52;;;;;;;;;;6218966;28;20054;-73
2022/11/28 07:36:24;;;;;;;19.95;11.30;;;;;;;;;;6221715;28;20046;-74
2022/11/28 07:39:27;;;;;;;17.75;10.13;;;;;;;;;;6222419;28;20065;-74
2022/11/28 07:42:29;;;;;;;13.27;9.90;;;;;;;;;;6221394;28;20061;-72
2022/11/28 07:45:31;;;;;;;13.68;9.35;;;;;;;;;;6218225;28;20061;-70
2022/11/28 07:48:33;;;;;;;16.63;9.55;;;;;;;;;;6222737;28;20057;-82
2022/11/28 07:51:34;;;;;;;14.50;9.43;;;;;;;;;;6220801;28;20472;-81
2022/11/28 07:54:37;;;;;;;13.88;9.73;;;;;;;;;;6218851;28;20061;-81
2022/11/28 07:57:39;;;;;;;13.70;8.82;;;;;;;;;;6217931;28;20049;-81
2022/11/28 08:00:41;;;;;;;16.48;9.60;;;;;;;;;;6217574;28;20333;-82
2022/11/28 08:03:43;;;;;;;12.30;8.70;;;;;;;;;;6221971;28;20073;-82
2022/11/28 08:06:45;;;;;;;14.52;8.95;;;;;;;;;;6223495;28;20397;-83
2022/11/28 08:09:48;;;;;;;12.65;8.88;;;;;;;;;;6224073;28;20366;-74
2022/11/28 08:12:50;;;;;;;13.75;9.20;;;;;;;;;;6223728;28;20058;-74
2022/11/28 08:15:52;;;;;;;12.55;8.57;;;;;;;;;;6225777;28;20054;-73
2022/11/28 08:18:55;;;;;;;15.15;8.80;;;;;;;;;;6224337;28;20061;-73
2022/11/28 08:21:57;;;;;;;14.13;9.10;;;;;;;;;;6223970;28;20333;-73
2022/11/28 08:25:00;;;;;;;13.68;8.70;;;;;;;;;;6220771;28;20046;-72
2022/11/28 08:28:01;;;;;;;11.88;7.97;;;;;;;;;;6224503;28;20057;-72
2022/11/28 08:31:09;;;;;;;13.23;9.07;;;;;;;;;;6222104;28;20277;-72
2022/11/28 08:34:11;;;;;;;13.07;8.88;;;;;;;;;;6223473;28;20088;-72
2022/11/28 08:37:13;;;;;;;12.20;8.45;;;;;;;;;;6223820;28;20060;-72
2022/11/28 08:40:16;;;;;;;11.25;8.05;;;;;;;;;;6223408;28;20057;-72
2022/11/28 08:43:18;;;;;;;13.60;7.93;;;;;;;;;;6222623;28;20092;-72
2022/11/28 08:46:21;;;;;;;11.63;8.07;;;;;;;;;;6223684;28;20058;-72
2022/11/28 08:49:23;;;;;;;11.82;7.95;;;;;;;;;;6222630;28;20050;-72
2022/11/28 08:52:24;;;;;;;13.30;8.25;;;;;;;;;;6225524;28;20443;-72
2022/11/28 08:55:27;;;;;;;12.73;9.02;;;;;;;;;;6222540;28;20041;-75
2022/11/28 08:58:29;;;;;;;16.65;9.05;;;;;;;;;;6222811;28;20053;-74
2022/11/28 09:01:31;;;;;;;12.95;8.27;;;;;;;;;;6223821;28;20057;-72
2022/11/28 09:04:33;;;;;;;13.52;9.13;;;;;;;;;;6200620;28;20046;-72
2022/11/28 09:07:34;;;;;;;11.95;9.25;;;;;;;;;;6198314;28;20061;-74
2022/11/28 09:10:38;;;;;;;14.50;9.02;;;;;;;;;;6223875;28;20405;-74
2022/11/28 09:13:40;;;;;;;16.35;8.85;;;;;;;;;;6223286;28;20124;-74
2022/11/28 09:16:41;;;;;;;13.98;9.73;;;;;;;;;;6223481;28;20057;-74
2022/11/28 09:19:43;;;;;;;15.02;9.73;;;;;;;;;;6224097;28;20108;-74
2022/11/28 09:22:46;;;;;;;14.20;9.45;;;;;;;;;;6225839;28;20112;-74
2022/11/28 09:25:49;;;;;;;14.52;9.27;;;;;;;;;;6224096;28;20041;-74
2022/11/28 09:28:50;;;;;;;13.68;8.93;;;;;;;;;;6224073;28;20050;-74
2022/11/28 09:31:52;;;;;;;12.13;8.55;;;;;;;;;;6224987;28;20054;-75
2022/11/28 09:34:54;;;;;;;15.73;9.07;;;;;;;;;;6222396;28;20057;-74
2022/11/28 09:37:57;;;;;;;13.70;8.48;;;;;;;;;;6225487;28;20057;-74
2022/11/28 09:41:01;;;;;;;10.35;8.32;;;;;;;;;;6224671;28;20098;-73
2022/11/28 09:44:08;;;;;;;13.60;8.80;;;;;;;;;;6221857;28;20062;-73
2022/11/28 09:47:17;;;;;;;12.82;9.60;;;;;;;;;;6221583;28;20054;-73
2022/11/28 09:50:22;;;;;;;14.07;8.60;;;;;;;;;;6223953;28;20257;-73
2022/11/28 09:53:26;;;;;;;13.30;9.00;;;;;;;;;;6220467;28;20068;-74
2022/11/28 09:56:29;;;;;;;14.05;10.10;;;;;;;;;;6222321;28;20111;-73
2022/11/28 09:59:31;;;;;;;16.33;9.55;;;;;;;;;;6220293;28;20058;-75
2022/11/28 10:02:37;;;;;;;17.58;9.93;;;;;;;;;;6224001;28;20050;-73
2022/11/28 10:05:43;;;;;;;15.77;9.43;;;;;;;;;;6223588;28;20340;-73
2022/11/28 10:08:56;;;;;;;13.77;9.18;;;;;;;;;;6220035;28;20050;-73
2022/11/28 10:12:10;;;;;;;14.07;9.70;;;;;;;;;;6224081;28;20059;-74
2022/11/28 10:15:20;;;;;;;15.38;9.90;;;;;;;;;;6219867;28;20096;-73
2022/11/28 10:18:34;;;;;;;14.85;9.30;;;;;;;;;;6220389;28;20073;-73
2022/11/28 10:21:38;;;;;;;15.15;10.40;;;;;;;;;;6220557;28;20112;-73
2022/11/28 10:24:43;;;;;;;21.95;10.88;;;;;;;;;;6220408;28;20054;-74
2022/11/28 10:27:47;;;;;;;14.77;9.85;;;;;;;;;;6224125;28;20045;-73
2022/11/28 10:30:52;;;;;;;17.03;9.87;;;;;;;;;;6221873;28;20053;-74
2022/11/28 10:33:58;;;;;;;19.15;10.75;;;;;;;;;;6220680;28;20469;-74
2022/11/28 10:37:02;;;;;;;16.70;10.02;;;;;;;;;;6221301;28;20234;-74
2022/11/28 10:40:17;;;;;;;17.75;10.45;;;;;;;;;;6221367;28;20418;-73
2022/11/28 10:43:27;;;;;;;15.50;9.55;;;;;;;;;;6222355;28;20171;-73
2022/11/28 10:46:45;;;;;;;22.35;10.48;;;;;;;;;;6220607;28;20862;-74
2022/11/28 10:49:54;;;;;;;18.92;9.35;;;;;;;;;;6220329;28;20050;-73
2022/11/28 10:53:00;;;;;;;16.67;10.15;;;;;;;;;;6217151;28;20312;-73
2022/11/28 10:56:09;;;;;;;14.95;9.90;;;;;;;;;;6225490;28;20049;-73
2022/11/28 10:59:18;;;;;;;22.15;10.07;;;;;;;;;;6221827;28;20329;-72
2022/11/28 11:02:22;;;;;;;14.93;9.98;;;;;;;;;;6221615;28;20045;-73
2022/11/28 11:05:26;;;;;;;11.57;9.00;;;;;;;;;;6221092;28;20050;-73
2022/11/28 11:08:30;;;;;;;11.93;7.65;;;;;;;;;;6220650;28;20054;-72
2022/11/28 11:11:34;;;;;;;15.15;8.70;;;;;;;;;;6218875;28;20129;-70
2022/11/28 11:14:39;;;;;;;13.23;8.02;;;;;;;;;;6221038;28;20069;-72
2022/11/28 11:17:41;;;;;;;13.57;8.38;;;;;;;;;;6220103;28;20326;-71
2022/11/28 11:20:42;;;;;;;12.27;7.75;;;;;;;;;;6220873;28;20053;-73
2022/11/28 11:23:45;;;;;;;16.75;8.50;;;;;;;;;;6219736;28;20049;-71
2022/11/28 11:26:48;;;;;;;14.95;8.48;;;;;;;;;;6219048;28;20421;-72
2022/11/28 11:29:51;;;;;;;14.00;8.35;;;;;;;;;;6218457;28;20427;-71
2022/11/28 11:32:54;;;;;;;16.17;7.53;;;;;;;;;;6219687;28;20057;-72
2022/11/28 11:35:55;;;;;;;11.75;7.50;;;;;;;;;;6219117;28;20058;-71
2022/11/28 11:39:16;;;;;;;15.30;7.65;;;;;;;;;;6219375;28;20061;-72
2022/11/28 11:42:22;;;;;;;13.40;6.97;;;;;;;;;;6223783;28;20273;-71
2022/11/28 11:45:28;;;;;;;17.83;7.40;;;;;;;;;;6224794;28;20041;-72
2022/11/28 11:48:35;;;;;;;12.77;7.38;;;;;;;;;;6225442;28;20225;-72
2022/11/28 11:51:36;;;;;;;10.57;7.45;;;;;;;;;;6228297;28;20057;-71
2022/11/28 11:54:38;;;;;;;12.23;7.15;;;;;;;;;;6226232;28;20058;-71
2022/11/28 11:57:43;;;;;;;16.45;7.88;;;;;;;;;;6223843;28;20061;-71
2022/11/28 12:00:47;;;;;;;13.70;7.38;;;;;;;;;;6222682;28;20237;-72
2022/11/28 12:03:53;;;;;;;11.20;6.90;;;;;;;;;;6225902;28;20237;-71
2022/11/28 12:06:58;;;;;;;9.30;6.50;;;;;;;;;;6221298;28;20054;-71
2022/11/28 12:09:59;;;;;;;;;;;;;;;;;;6223610;28;20058;-71
2022/11/28 12:13:01;;;;;;;9.68;6.50;;;;;;;;;;6224307;28;19926;-73
2022/11/28 12:16:10;;;;;;;10.57;7.07;;;;;;;;;;6220338;28;20096;-72
2022/11/28 12:19:21;;;;;;;10.45;6.72;;;;;;;;;;6222123;28;20412;-72
2022/11/28 12:22:30;;;;;;;13.50;6.65;;;;;;;;;;6198885;28;20054;-72
2022/11/28 12:25:37;;;;;;;15.55;7.75;;;;;;;;;;6224087;28;21208;-72
2022/11/28 12:28:52;;;;;;;10.90;7.53;;;;;;;;;;6220831;28;20049;-73
2022/11/28 12:32:05;;;;;;;10.43;6.97;;;;;;;;;;6224630;28;20092;-72
2022/11/28 12:35:18;;;;;;;12.38;7.72;;;;;;;;;;6221788;28;20061;-72
2022/11/28 12:38:27;;;;;;;13.55;7.80;;;;;;;;;;6222307;28;20065;-72
2022/11/28 12:41:40;;;;;;;11.48;7.25;;;;;;;;;;6222369;28;20563;-72
2022/11/28 12:44:54;;;;;;;13.85;7.78;;;;;;;;;;6221951;28;20297;-72
2022/11/28 12:48:06;;;;;;;12.07;7.75;;;;;;;;;;6225477;28;20084;-73
2022/11/28 12:51:13;;;;;;;12.00;7.38;;;;;;;;;;6223298;28;20045;-70
2022/11/28 12:54:27;;;;;;;13.40;7.25;;;;;;;;;;6218612;28;20269;-70
2022/11/28 12:57:32;;;;;;;;;;;;;;;;;;6220791;28;20206;-69
2022/11/28 13:00:34;;;;;;;12.68;7.00;;;;;;;;;;6217445;28;20248;-72
2022/11/28 13:03:41;;;;;;;11.80;7.88;;;;;;;;;;6218495;28;20061;-72
2022/11/28 13:06:50;;;;;;;11.95;6.20;;;;;;;;;;6219577;28;20065;-71
2022/11/28 13:10:02;;;;;;;12.32;6.45;;;;;;;;;;6225199;28;20093;-72
2022/11/28 13:13:06;;;;;;;16.33;7.43;;;;;;;;;;6229569;28;20049;-69
2022/11/28 13:16:17;;;;;;;13.82;7.22;;;;;;;;;;6228573;28;20049;-71
2022/11/28 13:19:29;;;;;;;11.38;6.53;;;;;;;;;;6225778;28;20219;-71
2022/11/28 13:22:38;;;;;;;11.45;6.93;;;;;;;;;;6200027;28;20053;-72
2022/11/28 13:25:44;;;;;;;11.02;7.32;;;;;;;;;;6196749;28;20058;-71
2022/11/28 13:28:50;;;;;;;9.25;7.07;;;;;;;;;;6200065;28;20326;-70
2022/11/28 13:31:56;;;;;;;10.32;6.95;;;;;;;;;;6198785;28;20274;-70
2022/11/28 13:35:00;;;;;;;8.73;6.45;;;;;;;;;;6199579;28;20066;-71
2022/11/28 13:38:06;;;;;;;12.33;7.20;;;;;;;;;;6198513;28;20096;-71
2022/11/28 13:41:12;;;;;;;13.07;7.53;;;;;;;;;;6199225;28;20042;-72
2022/11/28 13:44:17;;;;;;;11.90;6.93;;;;;;;;;;6198665;28;20279;-72
2022/11/28 13:47:29;;;;;;;14.70;7.38;;;;;;;;;;6199555;28;20085;-70
2022/11/28 13:50:40;;;;;;;13.85;6.88;;;;;;;;;;6199009;28;20620;-70
2022/11/28 13:53:42;;;;;;;10.88;7.00;;;;;;;;;;6196026;28;20313;-72
2022/11/28 13:56:45;;;;;;;11.52;7.35;;;;;;;;;;6196556;28;20055;-70
2022/11/28 14:00:02;;;;;;;10.25;6.70;;;;;;;;;;6194505;28;20050;-69
2022/11/28 14:03:04;;;;;;;15.77;8.00;;;;;;;;;;6194847;28;20062;-72
2022/11/28 14:06:07;;;;;;;10.45;7.30;;;;;;;;;;6196869;28;20058;-72
2022/11/28 14:09:23;;;;;;;12.95;7.82;;;;;;;;;;6195296;28;20054;-72
2022/11/28 14:12:27;;;;;;;11.07;7.35;;;;;;;;;;6196225;28;20318;-70
2022/11/28 14:15:32;;;;;;;12.88;7.65;;;;;;;;;;6197224;28;20332;-71
2022/11/28 14:18:42;;;;;;;11.23;7.28;;;;;;;;;;6198721;28;20109;-71
2022/11/28 14:21:57;;;;;;;10.50;7.28;;;;;;;;;;6217199;28;20240;-71
2022/11/28 14:25:03;;;;;;;17.55;8.00;;;;;;;;;;6220286;28;20075;-71
2022/11/28 14:28:07;;;;;;;10.90;7.68;;;;;;;;;;6222092;28;20054;-72
2022/11/28 14:31:21;;;;;;;14.25;7.63;;;;;;;;;;6220648;28;20297;-71
2022/11/28 14:34:38;;;;;;;11.80;7.95;;;;;;;;;;6219181;28;20054;-71
2022/11/28 14:37:59;;;;;;;12.93;8.38;;;;;;;;;;6222245;28;20053;-72
2022/11/28 14:41:03;;;;;;;12.85;8.07;;;;;;;;;;6222813;28;20080;-71
2022/11/28 14:44:44;;;;;;;16.40;8.73;;;;;;;;;;6218823;28;20053;-72
2022/11/28 14:48:06;;;;;;;13.02;8.73;;;;;;;;;;6122364;29;20052;-71
2022/11/28 14:51:08;;;;;;;14.20;8.15;;;;;;;;;;6120633;29;20087;-71
2022/11/28 14:54:19;;;;;;;11.65;7.72;;;;;;;;;;6122351;29;20060;-71
2022/11/28 14:57:25;;;;;;;12.23;7.65;;;;;;;;;;6119283;29;20071;-72
2022/11/28 15:00:29;;;;;;;12.00;7.85;;;;;;;;;;6121612;29;20059;-70
2022/11/28 15:03:35;;;;;;;16.33;8.80;;;;;;;;;;6120137;29;20110;-71
2022/11/28 15:06:38;;;;;;;15.90;9.32;;;;;;;;;;6122284;29;20055;-71
2022/11/28 15:09:46;;;;;;;14.35;8.82;;;;;;;;;;6122472;29;20055;-69
2022/11/28 15:12:55;;;;;;;15.27;9.85;;;;;;;;;;6122830;29;20235;-71
2022/11/28 15:15:57;;;;;;;20.42;10.20;;;;;;;;;;6124324;29;20123;-68
2022/11/28 15:19:04;;;;;;;17.15;10.77;;;;;;;;;;6123631;29;20055;-70
2022/11/28 15:22:06;;;;;;;15.10;10.13;;;;;;;;;;6197715;28;20117;-68
2022/11/28 15:25:19;;;;;;;16.45;10.88;;;;;;;;;;6222976;28;20407;-70
2022/11/28 15:28:22;;;;;;;17.63;10.63;;;;;;;;;;6225950;28;20098;-70
2022/11/28 15:31:24;;;;;;;16.02;10.20;;;;;;;;;;6223554;28;20057;-69
2022/11/28 15:34:28;;;;;;;16.88;10.05;;;;;;;;;;6221984;28;20077;-69
2022/11/28 15:37:31;;;;;;;15.63;9.60;;;;;;;;;;6222220;28;20141;-68
2022/11/28 15:40:35;;;;;;;18.90;10.98;;;;;;;;;;6224985;28;20104;-69
2022/11/28 15:43:37;;;;;;;17.00;10.77;;;;;;;;;;6220781;28;20046;-67
2022/11/28 15:46:39;;;;;;;18.60;11.52;;;;;;;;;;6223439;28;20053;-68
2022/11/28 15:49:41;;;;;;;14.88;10.07;;;;;;;;;;6223392;28;20050;-68
2022/11/28 15:52:53;;;;;;;16.00;10.90;;;;;;;;;;6224572;28;20068;-68
2022/11/28 15:56:09;;;;;;;19.35;11.63;;;;;;;;;;6224641;28;20049;-69
2022/11/28 15:59:11;;;;;;;18.63;11.52;;;;;;;;;;6220218;28;20065;-70
2022/11/28 16:02:16;;;;;;;17.83;11.23;;;;;;;;;;6223247;28;20073;-68
2022/11/28 16:05:20;;;;;;;16.92;11.00;;;;;;;;;;6224325;28;20100;-69
2022/11/28 16:08:27;;;;;;;;;;;;;;;;;;6226104;28;20053;-68
2022/11/28 16:11:31;;;;;;;16.65;10.57;;;;;;;;;;6222115;28;19994;-68
2022/11/28 16:14:35;;;;;;;16.10;11.32;;;;;;;;;;6225170;28;20049;-69
2022/11/28 16:17:39;;;;;;;19.17;12.03;;;;;;;;;;6222108;28;20057;-71
2022/11/28 16:20:40;;;;;;;19.60;12.05;;;;;;;;;;6222866;28;20475;-69
2022/11/28 16:23:43;;;;;;;23.10;12.45;;;;;;;;;;6224338;28;20049;-70
2022/11/28 16:26:54;;;;;;;20.35;12.90;;;;;;;;;;6223157;28;20395;-68
2022/11/28 16:29:56;;;;;;;19.13;12.57;;;;;;;;;;6222582;28;20054;-68
2022/11/28 16:32:58;;;;;;;18.20;12.13;;;;;;;;;;6221110;28;20356;-68
2022/11/28 16:36:08;;;;;;;15.98;12.25;;;;;;;;;;6221451;28;20101;-68
2022/11/28 16:39:14;;;;;;;17.40;12.52;;;;;;;;;;6223073;28;20065;-68
2022/11/28 16:42:19;;;;;;;20.38;13.07;;;;;;;;;;6222883;28;20231;-68
2022/11/28 16:45:24;;;;;;;20.75;13.00;;;;;;;;;;6224540;28;20049;-68
2022/11/28 16:48:27;;;;;;;18.17;12.50;;;;;;;;;;6220495;28;20045;-69
2022/11/28 16:51:35;;;;;;;22.65;12.68;;;;;;;;;;6224089;28;20056;-71
2022/11/28 16:54:36;;;;;;;20.05;13.20;;;;;;;;;;6224218;28;20049;-70
2022/11/28 16:57:46;;;;;;;19.88;12.10;;;;;;;;;;6225889;28;20233;-70
2022/11/28 17:00:58;;;;;;;20.40;13.02;;;;;;;;;;6220619;28;20057;-69
2022/11/28 17:03:59;;;;;;;20.92;13.35;;;;;;;;;;6225338;28;20053;-70
2022/11/28 17:07:04;;;;;;;20.95;13.52;;;;;;;;;;6227604;28;20101;-71
2022/11/28 17:10:06;;;;;;;22.17;12.65;;;;;;;;;;6220569;28;20519;-71
2022/11/28 17:13:13;;;;;;;20.60;13.05;;;;;;;;;;6220309;28;20053;-68
2022/11/28 17:16:17;;;;;;;22.20;14.82;;;;;;;;;;6222265;28;20067;-68
2022/11/28 17:19:19;;;;;;;20.45;13.38;;;;;;;;;;6222687;28;20364;-69
2022/11/28 17:22:23;;;;;;;21.00;13.32;;;;;;;;;;6221632;28;20057;-69
2022/11/28 17:25:24;;;;;;;21.75;13.77;;;;;;;;;;6221357;28;20050;-69
2022/11/28 17:28:27;;;;;;;21.15;14.10;;;;;;;;;;6223459;28;20080;-68
2022/11/28 17:31:29;;;;;;;19.45;12.65;;;;;;;;;;6224172;28;20090;-68
2022/11/28 17:34:33;;;;;;;22.55;14.00;;;;;;;;;;6223511;28;20054;-69
2022/11/28 17:37:34;;;;;;;21.05;13.98;;;;;;;;;;6221150;28;20367;-68
2022/11/28 17:40:37;;;;;;;20.73;13.77;;;;;;;;;;6222821;28;20065;-70
2022/11/28 17:43:40;;;;;;;18.40;13.23;;;;;;;;;;6216656;28;20081;-66
2022/11/28 17:46:42;;;;;;;23.30;13.70;;;;;;;;;;6223623;28;20309;-68
2022/11/28 17:49:44;;;;;;;21.15;13.18;;;;;;;;;;6219764;28;20053;-71
2022/11/28 17:52:45;;;;;;;24.30;14.18;;;;;;;;;;6219970;28;20101;-69
2022/11/28 17:55:50;;;;;;;21.48;13.65;;;;;;;;;;6219516;28;20065;-69
2022/11/28 17:58:53;;;;;;;19.95;13.77;;;;;;;;;;6217059;28;20053;-66
2022/11/28 18:01:54;;;;;;;21.35;14.43;;;;;;;;;;6218667;28;20056;-71
2022/11/28 18:04:56;;;;;;;23.38;15.27;;;;;;;;;;6216746;28;20058;-69